1855 NOT_NAMED (1855131S08073)


IBTrACS version v04r00. Visit IBTrACS website for data access.
Please direct all questions to the IBTrACS Q and A forum

Storm track - Intensity - Wind Radii - Intensity Data - Source Data - All data

Summary Information

Storm ID 1855131S08073
Start May 11 06Z
End May 17 06Z
ATCF IDs
Track status Best track data.

Storm track plot

Map of storm track

Intensity plots

No Intensity information for this storm


Radial wind information

No radial wind information for this storm


Position and Intensity Table

BASIN ISO_TIME_________ NATURE LAT LON
degrees north degrees east
SI 1855-05-11 06:00:00 NR -7.60 73.40
SI 09:00:00 NR -7.92 73.05
SI 12:00:00 NR -8.23 72.70
SI 15:00:00 NR -8.54 72.35
SI 18:00:00 NR -8.84 72.02
SI 21:00:00 NR -9.12 71.69
SI 1855-05-12 00:00:00 NR -9.40 71.38
SI 03:00:00 NR -9.66 71.08
SI 06:00:00 NR -9.90 70.80
SI 09:00:00 NR -10.12 70.54
SI 12:00:00 NR -10.33 70.30
SI 15:00:00 NR -10.52 70.09
SI 18:00:00 NR -10.71 69.89
SI 21:00:00 NR -10.89 69.72
SI 1855-05-13 00:00:00 NR -11.08 69.56
SI 03:00:00 NR -11.29 69.42
SI 06:00:00 NR -11.50 69.30
SI 09:00:00 NR -11.74 69.18
SI 12:00:00 NR -11.99 69.08
SI 15:00:00 NR -12.25 69.00
SI 18:00:00 NR -12.52 68.94
SI 21:00:00 NR -12.81 68.89
SI 1855-05-14 00:00:00 NR -13.10 68.85
SI 03:00:00 NR -13.39 68.82
SI 06:00:00 NR -13.70 68.80
SI 09:00:00 NR -13.97 68.77
SI 12:00:00 NR -14.25 68.74
SI 15:00:00 NR -14.54 68.73
SI 18:00:00 NR -14.84 68.73
SI 21:00:00 NR -15.17 68.73
SI 1855-05-15 00:00:00 NR -15.51 68.74
SI 03:00:00 NR -15.89 68.77
SI 06:00:00 NR -16.30 68.80
SI 09:00:00 NR -16.79 68.84
SI 12:00:00 NR -17.33 68.89
SI 15:00:00 NR -17.89 68.95
SI 18:00:00 NR -18.47 69.02
SI 21:00:00 NR -19.04 69.09
SI 1855-05-16 00:00:00 NR -19.59 69.16
SI 03:00:00 NR -20.12 69.23
SI 06:00:00 NR -20.60 69.30
SI 09:00:00 NR -21.03 69.36
SI 12:00:00 NR -21.40 69.42
SI 15:00:00 NR -21.74 69.47
SI 18:00:00 NR -22.03 69.52
SI 21:00:00 NR -22.30 69.57
SI 1855-05-17 00:00:00 NR -22.54 69.61
SI 03:00:00 NR -22.78 69.66
SI 06:00:00 NR -23.00 69.70

Source Information

Agency Information
USA
TOKYO
CMA
HKO
NEWDELHI
REUNION WMO-Best-Tracks.txt:Line=101:xxxx855015
BOM
NADI
WELLINGTON
DS824
TD9636
TD9635
NEUMANN
MLC

All available IBTrACS Data

SEASON BASIN SUBBASIN ISO_TIME_________ NATURE LAT LON WMO AGENCY DIST2LAND LANDFALL IFLAG USA SSHS REUNION LAT REUNION LON REUNION TYPE REUNION TNUM STORM SPEED STORM DIR
Year degrees north degrees east km km 1 degrees north degrees east 1 kts degrees
1855 SI MM 1855-05-11 06:00:00 NR -7.60 73.40 reunion 1705 1705 _____O________ -1 -7.60 73.40 99 9.90 9 228
1855 SI MM 09:00:00 NR -7.92 73.05 1755 1755 _____P________ -1 -7.92 73.05 99 9 228
1855 SI MM 12:00:00 NR -8.23 72.70 1801 1801 _____P________ -1 -8.23 72.70 99 9 228
1855 SI MM 15:00:00 NR -8.54 72.35 1846 1846 _____P________ -1 -8.54 72.35 99 9 228
1855 SI MM 18:00:00 NR -8.84 72.02 1896 1896 _____P________ -1 -8.84 72.02 99 9 228
1855 SI MM 21:00:00 NR -9.12 71.69 1942 1896 _____P________ -1 -9.12 71.69 99 9 228
1855 SI MM 1855-05-12 00:00:00 NR -9.40 71.38 1896 1857 _____P________ -1 -9.40 71.38 99 8 228
1855 SI MM 03:00:00 NR -9.66 71.08 1850 1810 _____P________ -1 -9.66 71.08 99 8 229
1855 SI MM 06:00:00 NR -9.90 70.80 reunion 1810 1779 _____O________ -1 -9.90 70.80 99 9.90 7 229
1855 SI MM 09:00:00 NR -10.12 70.54 1770 1739 _____P________ -1 -10.12 70.54 99 6 229
1855 SI MM 12:00:00 NR -10.33 70.30 1739 1708 _____P________ -1 -10.33 70.30 99 6 228
1855 SI MM 15:00:00 NR -10.52 70.09 1708 1677 _____P________ -1 -10.52 70.09 99 6 227
1855 SI MM 18:00:00 NR -10.71 69.89 1677 1646 _____P________ -1 -10.71 69.89 99 5 224
1855 SI MM 21:00:00 NR -10.89 69.72 1646 1623 _____P________ -1 -10.89 69.72 99 5 221
1855 SI MM 1855-05-13 00:00:00 NR -11.08 69.56 1623 1592 _____P________ -1 -11.08 69.56 99 5 217
1855 SI MM 03:00:00 NR -11.29 69.42 1592 1569 _____P________ -1 -11.29 69.42 99 5 211
1855 SI MM 06:00:00 NR -11.50 69.30 reunion 1569 1547 _____O________ -1 -11.50 69.30 99 9.90 5 207
1855 SI MM 09:00:00 NR -11.74 69.18 1547 1517 _____P________ -1 -11.74 69.18 99 5 204
1855 SI MM 12:00:00 NR -11.99 69.08 1517 1495 _____P________ -1 -11.99 69.08 99 5 199
1855 SI MM 15:00:00 NR -12.25 69.00 1488 1466 _____P________ -1 -12.25 69.00 99 6 195
1855 SI MM 18:00:00 NR -12.52 68.94 1466 1446 _____P________ -1 -12.52 68.94 99 6 191
1855 SI MM 21:00:00 NR -12.81 68.89 1446 1426 _____P________ -1 -12.81 68.89 99 6 189
1855 SI MM 1855-05-14 00:00:00 NR -13.10 68.85 1418 1399 _____P________ -1 -13.10 68.85 99 6 186
1855 SI MM 03:00:00 NR -13.39 68.82 1399 1380 _____P________ -1 -13.39 68.82 99 6 183
1855 SI MM 06:00:00 NR -13.70 68.80 reunion 1380 1362 _____O________ -1 -13.70 68.80 99 9.90 6 185
1855 SI MM 09:00:00 NR -13.97 68.77 1362 1341 _____P________ -1 -13.97 68.77 99 6 186
1855 SI MM 12:00:00 NR -14.25 68.74 1336 1324 _____P________ -1 -14.25 68.74 99 6 184
1855 SI MM 15:00:00 NR -14.54 68.73 1324 1308 _____P________ -1 -14.54 68.73 99 6 182
1855 SI MM 18:00:00 NR -14.84 68.73 1308 1292 _____P________ -1 -14.84 68.73 99 6 0
1855 SI MM 21:00:00 NR -15.17 68.73 1287 1271 _____P________ -1 -15.17 68.73 99 7 179
1855 SI MM 1855-05-15 00:00:00 NR -15.51 68.74 1271 1262 _____P________ -1 -15.51 68.74 99 7 177
1855 SI MM 03:00:00 NR -15.89 68.77 1262 1244 _____P________ -1 -15.89 68.77 99 8 176
1855 SI MM 06:00:00 NR -16.30 68.80 reunion 1244 1223 _____O________ -1 -16.30 68.80 99 9.90 9 175
1855 SI MM 09:00:00 NR -16.79 68.84 1223 1215 _____P________ -1 -16.79 68.84 99 10 175
1855 SI MM 12:00:00 NR -17.33 68.89 1215 1196 _____P________ -1 -17.33 68.89 99 11 175
1855 SI MM 15:00:00 NR -17.89 68.95 1206 1193 _____P________ -1 -17.89 68.95 99 11 174
1855 SI MM 18:00:00 NR -18.47 69.02 1191 1187 _____P________ -1 -18.47 69.02 99 12 174
1855 SI MM 21:00:00 NR -19.04 69.09 1191 1184 _____P________ -1 -19.04 69.09 99 11 173
1855 SI MM 1855-05-16 00:00:00 NR -19.59 69.16 1193 1189 _____P________ -1 -19.59 69.16 99 11 173
1855 SI MM 03:00:00 NR -20.12 69.23 1189 1188 _____P________ -1 -20.12 69.23 99 10 173
1855 SI MM 06:00:00 NR -20.60 69.30 reunion 1198 1198 _____O________ -1 -20.60 69.30 99 9.90 9 172
1855 SI MM 09:00:00 NR -21.03 69.36 1209 1209 _____P________ -1 -21.03 69.36 99 8 172
1855 SI MM 12:00:00 NR -21.40 69.42 1211 1211 _____P________ -1 -21.40 69.42 99 7 171
1855 SI MM 15:00:00 NR -21.74 69.47 1224 1224 _____P________ -1 -21.74 69.47 99 6 171
1855 SI MM 18:00:00 NR -22.03 69.52 1227 1227 _____P________ -1 -22.03 69.52 99 6 171
1855 SI MM 21:00:00 NR -22.30 69.57 1242 1242 _____P________ -1 -22.30 69.57 99 5 170
1855 SI MM 1855-05-17 00:00:00 NR -22.54 69.61 1245 1245 _____P________ -1 -22.54 69.61 99 5 171
1855 SI MM 03:00:00 NR -22.78 69.66 1261 1261 _____P________ -1 -22.78 69.66 99 5 171
1855 SI MM 06:00:00 NR -23.00 69.70 reunion 1265 _____O________ -1 -23.00 69.70 99 9.90 5 170